sensor_id;sensor_type;location;lat;lon;timestamp;temperature;humidity
15930;DHT22;8064;51.142;4.780;2022-11-09T00:00:31;15.50;99.70
15930;DHT22;8064;51.142;4.780;2022-11-09T00:02:57;15.50;99.70
15930;DHT22;8064;51.142;4.780;2022-11-09T00:05:22;15.50;99.80
15930;DHT22;8064;51.142;4.780;2022-11-09T00:07:48;15.50;99.80
15930;DHT22;8064;51.142;4.780;2022-11-09T00:10:14;15.50;99.80
15930;DHT22;8064;51.142;4.780;2022-11-09T00:12:40;15.50;99.80
15930;DHT22;8064;51.142;4.780;2022-11-09T00:15:05;15.50;99.80
15930;DHT22;8064;51.142;4.780;2022-11-09T00:17:31;15.50;99.80
15930;DHT22;8064;51.142;4.780;2022-11-09T00:19:57;15.50;99.80
15930;DHT22;8064;51.142;4.780;2022-11-09T00:22:23;15.50;99.80
15930;DHT22;8064;51.142;4.780;2022-11-09T00:24:48;15.50;99.80
15930;DHT22;8064;51.142;4.780;2022-11-09T00:27:14;15.50;99.80
15930;DHT22;8064;51.142;4.780;2022-11-09T00:29:40;15.50;99.70
15930;DHT22;8064;51.142;4.780;2022-11-09T00:32:06;15.40;99.70
15930;DHT22;8064;51.142;4.780;2022-11-09T00:34:32;15.50;99.70
15930;DHT22;8064;51.142;4.780;2022-11-09T00:36:57;15.50;99.60
15930;DHT22;8064;51.142;4.780;2022-11-09T00:39:23;15.50;99.60
15930;DHT22;8064;51.142;4.780;2022-11-09T00:41:49;15.50;99.50
15930;DHT22;8064;51.142;4.780;2022-11-09T00:44:14;15.50;99.50
15930;DHT22;8064;51.142;4.780;2022-11-09T00:46:40;15.40;99.40
15930;DHT22;8064;51.142;4.780;2022-11-09T00:49:06;15.40;99.30
15930;DHT22;8064;51.142;4.780;2022-11-09T00:51:31;15.40;99.20
15930;DHT22;8064;51.142;4.780;2022-11-09T00:53:57;15.40;99.20
15930;DHT22;8064;51.142;4.780;2022-11-09T00:56:23;15.40;99.10
15930;DHT22;8064;51.142;4.780;2022-11-09T00:58:52;15.40;99.10
15930;DHT22;8064;51.142;4.780;2022-11-09T01:01:18;15.40;99.10
15930;DHT22;8064;51.142;4.780;2022-11-09T01:03:44;15.40;99.00
15930;DHT22;8064;51.142;4.780;2022-11-09T01:06:21;15.40;99.00
15930;DHT22;8064;51.142;4.780;2022-11-09T01:08:47;15.40;99.00
15930;DHT22;8064;51.142;4.780;2022-11-09T01:11:14;15.40;99.00
15930;DHT22;8064;51.142;4.780;2022-11-09T01:13:41;15.40;99.00
15930;DHT22;8064;51.142;4.780;2022-11-09T01:16:09;15.40;99.00
15930;DHT22;8064;51.142;4.780;2022-11-09T01:18:36;15.40;99.00
15930;DHT22;8064;51.142;4.780;2022-11-09T01:21:04;15.40;98.90
15930;DHT22;8064;51.142;4.780;2022-11-09T01:23:31;15.40;98.90
15930;DHT22;8064;51.142;4.780;2022-11-09T01:26:03;15.40;98.80
15930;DHT22;8064;51.142;4.780;2022-11-09T01:28:29;15.40;98.80
15930;DHT22;8064;51.142;4.780;2022-11-09T01:30:59;15.40;98.80
15930;DHT22;8064;51.142;4.780;2022-11-09T01:33:25;15.40;98.70
15930;DHT22;8064;51.142;4.780;2022-11-09T01:35:51;15.40;98.70
15930;DHT22;8064;51.142;4.780;2022-11-09T01:38:17;15.40;98.70
15930;DHT22;8064;51.142;4.780;2022-11-09T01:40:43;15.30;98.70
15930;DHT22;8064;51.142;4.780;2022-11-09T01:43:20;15.30;98.70
15930;DHT22;8064;51.142;4.780;2022-11-09T01:45:59;15.30;98.60
15930;DHT22;8064;51.142;4.780;2022-11-09T01:51:14;15.20;98.60
15930;DHT22;8064;51.142;4.780;2022-11-09T01:53:44;15.20;98.60
15930;DHT22;8064;51.142;4.780;2022-11-09T01:56:12;15.10;98.60
15930;DHT22;8064;51.142;4.780;2022-11-09T01:58:49;15.10;98.60
15930;DHT22;8064;51.142;4.780;2022-11-09T02:01:17;15.10;98.60
15930;DHT22;8064;51.142;4.780;2022-11-09T02:03:56;15.10;98.60
15930;DHT22;8064;51.142;4.780;2022-11-09T02:06:25;15.10;98.60
15930;DHT22;8064;51.142;4.780;2022-11-09T02:08:54;15.00;98.60
15930;DHT22;8064;51.142;4.780;2022-11-09T02:11:22;15.00;98.60
15930;DHT22;8064;51.142;4.780;2022-11-09T02:13:56;15.00;98.60
15930;DHT22;8064;51.142;4.780;2022-11-09T02:16:22;15.00;98.70
15930;DHT22;8064;51.142;4.780;2022-11-09T02:18:53;15.00;98.70
15930;DHT22;8064;51.142;4.780;2022-11-09T02:21:21;15.00;98.80
15930;DHT22;8064;51.142;4.780;2022-11-09T02:23:48;15.00;98.80
15930;DHT22;8064;51.142;4.780;2022-11-09T02:26:39;15.00;98.80
15930;DHT22;8064;51.142;4.780;2022-11-09T02:29:06;15.00;98.90
15930;DHT22;8064;51.142;4.780;2022-11-09T02:31:35;15.00;99.00
15930;DHT22;8064;51.142;4.780;2022-11-09T02:34:08;15.00;99.10
15930;DHT22;8064;51.142;4.780;2022-11-09T02:36:35;15.00;99.20
15930;DHT22;8064;51.142;4.780;2022-11-09T02:39:01;14.90;99.20
15930;DHT22;8064;51.142;4.780;2022-11-09T02:41:28;14.90;99.30
15930;DHT22;8064;51.142;4.780;2022-11-09T02:43:55;14.90;99.50
15930;DHT22;8064;51.142;4.780;2022-11-09T02:46:34;14.80;99.60
15930;DHT22;8064;51.142;4.780;2022-11-09T02:49:01;14.80;99.80
15930;DHT22;8064;51.142;4.780;2022-11-09T02:51:27;14.80;99.90
15930;DHT22;8064;51.142;4.780;2022-11-09T02:53:53;14.80;99.90
15930;DHT22;8064;51.142;4.780;2022-11-09T02:56:19;14.70;99.90
15930;DHT22;8064;51.142;4.780;2022-11-09T02:58:45;14.70;99.90
15930;DHT22;8064;51.142;4.780;2022-11-09T03:01:11;14.70;99.90
15930;DHT22;8064;51.142;4.780;2022-11-09T03:03:36;14.70;99.90
15930;DHT22;8064;51.142;4.780;2022-11-09T03:06:03;14.70;99.90
15930;DHT22;8064;51.142;4.780;2022-11-09T03:08:28;14.70;99.90
15930;DHT22;8064;51.142;4.780;2022-11-09T03:10:54;14.70;99.90
15930;DHT22;8064;51.142;4.780;2022-11-09T03:13:20;14.70;99.90
15930;DHT22;8064;51.142;4.780;2022-11-09T03:15:46;14.70;99.90
15930;DHT22;8064;51.142;4.780;2022-11-09T03:18:12;14.70;99.90
15930;DHT22;8064;51.142;4.780;2022-11-09T03:20:37;14.70;99.90
15930;DHT22;8064;51.142;4.780;2022-11-09T03:23:03;14.70;99.90
15930;DHT22;8064;51.142;4.780;2022-11-09T03:25:29;14.70;99.90
15930;DHT22;8064;51.142;4.780;2022-11-09T03:27:59;14.70;99.90
15930;DHT22;8064;51.142;4.780;2022-11-09T03:30:26;14.70;99.90
15930;DHT22;8064;51.142;4.780;2022-11-09T03:33:04;14.60;99.90
15930;DHT22;8064;51.142;4.780;2022-11-09T03:35:30;14.60;99.90
15930;DHT22;8064;51.142;4.780;2022-11-09T03:37:55;14.60;99.90
15930;DHT22;8064;51.142;4.780;2022-11-09T03:40:21;14.60;99.90
15930;DHT22;8064;51.142;4.780;2022-11-09T03:42:47;14.60;99.90
15930;DHT22;8064;51.142;4.780;2022-11-09T03:45:15;14.50;99.90
15930;DHT22;8064;51.142;4.780;2022-11-09T03:47:44;14.50;99.90
15930;DHT22;8064;51.142;4.780;2022-11-09T03:50:11;14.50;99.90
15930;DHT22;8064;51.142;4.780;2022-11-09T03:52:38;14.50;99.90
15930;DHT22;8064;51.142;4.780;2022-11-09T03:55:04;14.50;99.90
15930;DHT22;8064;51.142;4.780;2022-11-09T03:57:31;14.50;99.90
15930;DHT22;8064;51.142;4.780;2022-11-09T03:59:57;14.40;99.90
15930;DHT22;8064;51.142;4.780;2022-11-09T04:02:22;14.40;99.90
15930;DHT22;8064;51.142;4.780;2022-11-09T04:04:48;14.40;99.90
15930;DHT22;8064;51.142;4.780;2022-11-09T04:07:14;14.40;99.90
15930;DHT22;8064;51.142;4.780;2022-11-09T04:09:40;14.30;99.90
15930;DHT22;8064;51.142;4.780;2022-11-09T04:12:06;14.30;99.90
15930;DHT22;8064;51.142;4.780;2022-11-09T04:14:31;14.30;99.90
15930;DHT22;8064;51.142;4.780;2022-11-09T04:16:57;14.30;99.90
15930;DHT22;8064;51.142;4.780;2022-11-09T04:19:23;14.20;99.90
15930;DHT22;8064;51.142;4.780;2022-11-09T04:21:49;14.20;99.90
15930;DHT22;8064;51.142;4.780;2022-11-09T04:24:15;14.20;99.90
15930;DHT22;8064;51.142;4.780;2022-11-09T04:26:41;14.20;99.90
15930;DHT22;8064;51.142;4.780;2022-11-09T04:29:06;14.20;99.90
15930;DHT22;8064;51.142;4.780;2022-11-09T04:31:32;14.20;99.90
15930;DHT22;8064;51.142;4.780;2022-11-09T04:33:58;14.20;99.90
15930;DHT22;8064;51.142;4.780;2022-11-09T04:36:24;14.20;99.90
15930;DHT22;8064;51.142;4.780;2022-11-09T04:38:49;14.20;99.90
15930;DHT22;8064;51.142;4.780;2022-11-09T04:41:15;14.10;99.90
15930;DHT22;8064;51.142;4.780;2022-11-09T04:43:41;14.10;99.90
15930;DHT22;8064;51.142;4.780;2022-11-09T04:46:07;14.10;99.90
15930;DHT22;8064;51.142;4.780;2022-11-09T04:48:33;14.10;99.90
15930;DHT22;8064;51.142;4.780;2022-11-09T04:51:03;14.10;99.90
15930;DHT22;8064;51.142;4.780;2022-11-09T04:53:29;14.10;99.90
15930;DHT22;8064;51.142;4.780;2022-11-09T04:55:55;14.00;99.90
15930;DHT22;8064;51.142;4.780;2022-11-09T04:58:22;14.00;99.90
15930;DHT22;8064;51.142;4.780;2022-11-09T05:00:48;14.00;99.90
15930;DHT22;8064;51.142;4.780;2022-11-09T05:03:13;14.00;99.90
15930;DHT22;8064;51.142;4.780;2022-11-09T05:05:39;14.00;99.90
15930;DHT22;8064;51.142;4.780;2022-11-09T05:08:06;13.90;99.90
15930;DHT22;8064;51.142;4.780;2022-11-09T05:10:32;13.90;99.90
15930;DHT22;8064;51.142;4.780;2022-11-09T05:13:06;13.90;99.90
15930;DHT22;8064;51.142;4.780;2022-11-09T05:15:33;13.90;99.90
15930;DHT22;8064;51.142;4.780;2022-11-09T05:17:59;13.90;99.90
15930;DHT22;8064;51.142;4.780;2022-11-09T05:20:27;13.80;99.90
15930;DHT22;8064;51.142;4.780;2022-11-09T05:22:53;13.80;99.90
15930;DHT22;8064;51.142;4.780;2022-11-09T05:25:37;13.80;99.90
15930;DHT22;8064;51.142;4.780;2022-11-09T05:28:03;13.80;99.90
15930;DHT22;8064;51.142;4.780;2022-11-09T05:30:29;13.80;99.90
15930;DHT22;8064;51.142;4.780;2022-11-09T05:32:55;13.80;99.90
15930;DHT22;8064;51.142;4.780;2022-11-09T05:35:21;13.70;99.90
15930;DHT22;8064;51.142;4.780;2022-11-09T05:37:47;13.70;99.90
15930;DHT22;8064;51.142;4.780;2022-11-09T05:40:15;13.70;99.90
15930;DHT22;8064;51.142;4.780;2022-11-09T05:42:41;13.70;99.90
15930;DHT22;8064;51.142;4.780;2022-11-09T05:45:08;13.60;99.90
15930;DHT22;8064;51.142;4.780;2022-11-09T05:47:39;13.60;99.90
15930;DHT22;8064;51.142;4.780;2022-11-09T05:50:06;13.60;99.90
15930;DHT22;8064;51.142;4.780;2022-11-09T05:52:33;13.60;99.90
15930;DHT22;8064;51.142;4.780;2022-11-09T05:54:59;13.60;99.90
15930;DHT22;8064;51.142;4.780;2022-11-09T05:57:27;13.60;99.90
15930;DHT22;8064;51.142;4.780;2022-11-09T05:59:53;13.60;99.90
15930;DHT22;8064;51.142;4.780;2022-11-09T06:02:19;13.60;99.90
15930;DHT22;8064;51.142;4.780;2022-11-09T06:04:45;13.50;99.90
15930;DHT22;8064;51.142;4.780;2022-11-09T06:07:10;13.50;99.90
15930;DHT22;8064;51.142;4.780;2022-11-09T06:09:36;13.50;99.90
15930;DHT22;8064;51.142;4.780;2022-11-09T06:12:02;13.50;99.90
15930;DHT22;8064;51.142;4.780;2022-11-09T06:14:28;13.40;99.90
15930;DHT22;8064;51.142;4.780;2022-11-09T06:16:53;13.40;99.90
15930;DHT22;8064;51.142;4.780;2022-11-09T06:19:19;13.40;99.90
15930;DHT22;8064;51.142;4.780;2022-11-09T06:21:45;13.40;99.90
15930;DHT22;8064;51.142;4.780;2022-11-09T06:24:10;13.40;99.90
15930;DHT22;8064;51.142;4.780;2022-11-09T06:26:36;13.40;99.90
15930;DHT22;8064;51.142;4.780;2022-11-09T06:29:02;13.40;99.90
15930;DHT22;8064;51.142;4.780;2022-11-09T06:31:28;13.40;99.90
15930;DHT22;8064;51.142;4.780;2022-11-09T06:33:54;13.40;99.90
15930;DHT22;8064;51.142;4.780;2022-11-09T06:36:20;13.30;99.90
15930;DHT22;8064;51.142;4.780;2022-11-09T06:38:50;13.30;99.90
15930;DHT22;8064;51.142;4.780;2022-11-09T06:41:16;13.30;99.90
15930;DHT22;8064;51.142;4.780;2022-11-09T06:43:42;13.30;99.90
15930;DHT22;8064;51.142;4.780;2022-11-09T06:46:08;13.30;99.90
15930;DHT22;8064;51.142;4.780;2022-11-09T06:48:36;13.30;99.90
15930;DHT22;8064;51.142;4.780;2022-11-09T06:51:03;13.30;99.90
15930;DHT22;8064;51.142;4.780;2022-11-09T06:53:34;13.30;99.90
15930;DHT22;8064;51.142;4.780;2022-11-09T06:56:03;13.30;99.90
15930;DHT22;8064;51.142;4.780;2022-11-09T06:58:30;13.30;99.90
15930;DHT22;8064;51.142;4.780;2022-11-09T07:00:56;13.30;99.90
15930;DHT22;8064;51.142;4.780;2022-11-09T07:03:22;13.30;99.90
15930;DHT22;8064;51.142;4.780;2022-11-09T07:05:49;13.30;99.90
15930;DHT22;8064;51.142;4.780;2022-11-09T07:08:16;13.30;99.90
15930;DHT22;8064;51.142;4.780;2022-11-09T07:10:42;13.30;99.90
15930;DHT22;8064;51.142;4.780;2022-11-09T07:13:09;13.30;99.90
15930;DHT22;8064;51.142;4.780;2022-11-09T07:15:36;13.40;99.90
15930;DHT22;8064;51.142;4.780;2022-11-09T07:18:03;13.40;99.90
15930;DHT22;8064;51.142;4.780;2022-11-09T07:20:29;13.50;99.90
15930;DHT22;8064;51.142;4.780;2022-11-09T07:22:55;13.50;99.90
15930;DHT22;8064;51.142;4.780;2022-11-09T07:25:22;13.50;99.90
15930;DHT22;8064;51.142;4.780;2022-11-09T07:27:47;13.60;99.90
15930;DHT22;8064;51.142;4.780;2022-11-09T07:30:13;13.60;99.90
15930;DHT22;8064;51.142;4.780;2022-11-09T07:32:39;13.60;99.90
15930;DHT22;8064;51.142;4.780;2022-11-09T07:35:06;13.60;99.90
15930;DHT22;8064;51.142;4.780;2022-11-09T07:37:33;13.70;99.90
15930;DHT22;8064;51.142;4.780;2022-11-09T07:40:01;13.70;99.90
15930;DHT22;8064;51.142;4.780;2022-11-09T07:42:29;13.80;99.90
15930;DHT22;8064;51.142;4.780;2022-11-09T07:44:56;13.80;99.90
15930;DHT22;8064;51.142;4.780;2022-11-09T07:47:23;13.80;99.90
15930;DHT22;8064;51.142;4.780;2022-11-09T07:49:50;13.90;99.90
15930;DHT22;8064;51.142;4.780;2022-11-09T07:52:21;13.90;99.90
15930;DHT22;8064;51.142;4.780;2022-11-09T07:54:47;13.90;99.90
15930;DHT22;8064;51.142;4.780;2022-11-09T07:57:16;13.90;99.90
15930;DHT22;8064;51.142;4.780;2022-11-09T07:59:42;14.00;99.90
15930;DHT22;8064;51.142;4.780;2022-11-09T08:02:09;14.00;99.90
15930;DHT22;8064;51.142;4.780;2022-11-09T08:04:36;14.00;99.90
15930;DHT22;8064;51.142;4.780;2022-11-09T08:07:04;14.10;99.90
15930;DHT22;8064;51.142;4.780;2022-11-09T08:09:32;14.20;99.90
15930;DHT22;8064;51.142;4.780;2022-11-09T08:12:01;14.30;99.90
15930;DHT22;8064;51.142;4.780;2022-11-09T08:14:31;14.40;99.90
15930;DHT22;8064;51.142;4.780;2022-11-09T08:16:59;14.50;99.90
15930;DHT22;8064;51.142;4.780;2022-11-09T08:19:26;14.60;99.90
15930;DHT22;8064;51.142;4.780;2022-11-09T08:21:53;14.80;99.90
15930;DHT22;8064;51.142;4.780;2022-11-09T08:24:22;15.00;99.90
15930;DHT22;8064;51.142;4.780;2022-11-09T08:26:49;15.10;99.90
15930;DHT22;8064;51.142;4.780;2022-11-09T08:29:15;15.20;99.90
15930;DHT22;8064;51.142;4.780;2022-11-09T08:31:42;15.30;99.90
15930;DHT22;8064;51.142;4.780;2022-11-09T08:34:12;15.40;99.90
15930;DHT22;8064;51.142;4.780;2022-11-09T08:36:45;15.40;99.90
15930;DHT22;8064;51.142;4.780;2022-11-09T08:39:12;15.50;99.90
15930;DHT22;8064;51.142;4.780;2022-11-09T08:41:38;15.60;99.90
15930;DHT22;8064;51.142;4.780;2022-11-09T08:44:05;15.70;99.90
15930;DHT22;8064;51.142;4.780;2022-11-09T08:46:32;15.80;99.90
15930;DHT22;8064;51.142;4.780;2022-11-09T08:48:59;16.00;99.60
15930;DHT22;8064;51.142;4.780;2022-11-09T08:51:28;16.20;99.30
15930;DHT22;8064;51.142;4.780;2022-11-09T08:53:55;16.40;99.00
15930;DHT22;8064;51.142;4.780;2022-11-09T08:56:22;16.50;98.70
15930;DHT22;8064;51.142;4.780;2022-11-09T08:58:49;16.60;98.30
15930;DHT22;8064;51.142;4.780;2022-11-09T09:01:15;16.80;97.90
15930;DHT22;8064;51.142;4.780;2022-11-09T09:03:41;17.30;97.00
15930;DHT22;8064;51.142;4.780;2022-11-09T09:06:07;18.10;95.70
15930;DHT22;8064;51.142;4.780;2022-11-09T09:08:33;19.10;94.20
15930;DHT22;8064;51.142;4.780;2022-11-09T09:11:03;20.40;92.20
15930;DHT22;8064;51.142;4.780;2022-11-09T09:13:29;21.70;90.20
15930;DHT22;8064;51.142;4.780;2022-11-09T09:15:55;22.20;88.30
15930;DHT22;8064;51.142;4.780;2022-11-09T09:18:21;22.80;85.90
15930;DHT22;8064;51.142;4.780;2022-11-09T09:20:46;22.20;86.70
15930;DHT22;8064;51.142;4.780;2022-11-09T09:23:12;23.40;83.70
15930;DHT22;8064;51.142;4.780;2022-11-09T09:25:39;23.30;83.30
15930;DHT22;8064;51.142;4.780;2022-11-09T09:28:05;24.50;79.60
15930;DHT22;8064;51.142;4.780;2022-11-09T09:30:31;26.10;74.90
15930;DHT22;8064;51.142;4.780;2022-11-09T09:32:58;26.80;71.00
15930;DHT22;8064;51.142;4.780;2022-11-09T09:35:26;26.10;71.50
15930;DHT22;8064;51.142;4.780;2022-11-09T09:37:52;27.20;68.90
15930;DHT22;8064;51.142;4.780;2022-11-09T09:43:42;27.20;65.20
15930;DHT22;8064;51.142;4.780;2022-11-09T09:46:20;28.50;63.30
15930;DHT22;8064;51.142;4.780;2022-11-09T09:48:53;29.80;58.80
15930;DHT22;8064;51.142;4.780;2022-11-09T09:54:11;32.50;52.20
15930;DHT22;8064;51.142;4.780;2022-11-09T09:56:42;33.40;50.00
15930;DHT22;8064;51.142;4.780;2022-11-09T09:59:12;33.80;50.10
15930;DHT22;8064;51.142;4.780;2022-11-09T10:01:41;34.50;48.90
15930;DHT22;8064;51.142;4.780;2022-11-09T10:04:21;34.10;48.60
15930;DHT22;8064;51.142;4.780;2022-11-09T10:07:00;35.00;46.20
15930;DHT22;8064;51.142;4.780;2022-11-09T10:15:30;36.50;43.10
15930;DHT22;8064;51.142;4.780;2022-11-09T10:26:20;30.20;49.20
15930;DHT22;8064;51.142;4.780;2022-11-09T10:28:55;30.80;49.50
15930;DHT22;8064;51.142;4.780;2022-11-09T10:31:23;30.80;48.80
15930;DHT22;8064;51.142;4.780;2022-11-09T10:33:54;29.90;50.70
15930;DHT22;8064;51.142;4.780;2022-11-09T10:36:30;27.60;52.50
15930;DHT22;8064;51.142;4.780;2022-11-09T10:38:59;25.30;56.00
15930;DHT22;8064;51.142;4.780;2022-11-09T10:41:37;23.40;59.50
15930;DHT22;8064;51.142;4.780;2022-11-09T10:44:04;22.00;62.90
15930;DHT22;8064;51.142;4.780;2022-11-09T10:46:30;20.80;65.60
15930;DHT22;8064;51.142;4.780;2022-11-09T10:49:20;20.00;68.00
15930;DHT22;8064;51.142;4.780;2022-11-09T10:51:46;20.10;69.10
15930;DHT22;8064;51.142;4.780;2022-11-09T10:54:23;21.60;68.40
15930;DHT22;8064;51.142;4.780;2022-11-09T10:59:44;21.70;67.10
15930;DHT22;8064;51.142;4.780;2022-11-09T11:07:43;20.40;70.50
15930;DHT22;8064;51.142;4.780;2022-11-09T11:15:53;19.10;73.70
15930;DHT22;8064;51.142;4.780;2022-11-09T11:18:23;18.70;74.70
15930;DHT22;8064;51.142;4.780;2022-11-09T11:21:14;18.50;75.40
15930;DHT22;8064;51.142;4.780;2022-11-09T11:23:40;18.70;76.40
15930;DHT22;8064;51.142;4.780;2022-11-09T11:28:47;18.30;77.10
15930;DHT22;8064;51.142;4.780;2022-11-09T11:31:18;18.00;78.10
15930;DHT22;8064;51.142;4.780;2022-11-09T11:33:44;17.70;79.20
15930;DHT22;8064;51.142;4.780;2022-11-09T11:39:22;17.10;81.20
15930;DHT22;8064;51.142;4.780;2022-11-09T11:42:29;16.90;82.20
15930;DHT22;8064;51.142;4.780;2022-11-09T11:45:08;16.70;83.30
15930;DHT22;8064;51.142;4.780;2022-11-09T11:47:44;16.50;84.10
15930;DHT22;8064;51.142;4.780;2022-11-09T11:53:08;16.20;85.60
15930;DHT22;8064;51.142;4.780;2022-11-09T12:03:46;15.90;89.00
15930;DHT22;8064;51.142;4.780;2022-11-09T12:06:32;15.90;90.00
15930;DHT22;8064;51.142;4.780;2022-11-09T12:09:11;15.90;90.10
15930;DHT22;8064;51.142;4.780;2022-11-09T12:12:02;15.90;90.50
15930;DHT22;8064;51.142;4.780;2022-11-09T12:20:20;16.40;90.60
15930;DHT22;8064;51.142;4.780;2022-11-09T12:25:32;16.60;90.60
15930;DHT22;8064;51.142;4.780;2022-11-09T12:36:41;16.40;90.50
15930;DHT22;8064;51.142;4.780;2022-11-09T12:39:26;16.20;90.70
15930;DHT22;8064;51.142;4.780;2022-11-09T12:41:54;16.10;91.00
15930;DHT22;8064;51.142;4.780;2022-11-09T12:44:30;15.90;91.20
15930;DHT22;8064;51.142;4.780;2022-11-09T12:47:02;15.80;91.60
15930;DHT22;8064;51.142;4.780;2022-11-09T12:49:37;15.60;91.90
15930;DHT22;8064;51.142;4.780;2022-11-09T12:52:09;15.50;92.20
15930;DHT22;8064;51.142;4.780;2022-11-09T12:54:38;15.40;92.50
15930;DHT22;8064;51.142;4.780;2022-11-09T12:57:20;15.40;92.60
15930;DHT22;8064;51.142;4.780;2022-11-09T12:59:52;15.30;92.80
15930;DHT22;8064;51.142;4.780;2022-11-09T13:05:04;15.50;93.10
15930;DHT22;8064;51.142;4.780;2022-11-09T13:07:51;15.50;93.00
15930;DHT22;8064;51.142;4.780;2022-11-09T13:10:36;15.60;92.90
15930;DHT22;8064;51.142;4.780;2022-11-09T13:15:38;15.70;92.90
15930;DHT22;8064;51.142;4.780;2022-11-09T13:18:25;15.80;93.10
15930;DHT22;8064;51.142;4.780;2022-11-09T13:20:52;15.90;93.10
15930;DHT22;8064;51.142;4.780;2022-11-09T13:23:30;15.90;93.00
15930;DHT22;8064;51.142;4.780;2022-11-09T13:25:56;15.90;93.10
15930;DHT22;8064;51.142;4.780;2022-11-09T13:30:58;15.90;93.10
15930;DHT22;8064;51.142;4.780;2022-11-09T13:33:27;15.80;93.10
15930;DHT22;8064;51.142;4.780;2022-11-09T13:38:23;15.80;93.30
15930;DHT22;8064;51.142;4.780;2022-11-09T13:40:51;15.90;93.40
15930;DHT22;8064;51.142;4.780;2022-11-09T13:43:36;15.90;93.50
15930;DHT22;8064;51.142;4.780;2022-11-09T13:48:46;15.90;93.60
15930;DHT22;8064;51.142;4.780;2022-11-09T13:58:45;15.90;94.10
15930;DHT22;8064;51.142;4.780;2022-11-09T14:01:34;16.00;94.00
15930;DHT22;8064;51.142;4.780;2022-11-09T14:04:00;16.20;93.90
15930;DHT22;8064;51.142;4.780;2022-11-09T14:06:31;16.20;93.80
15930;DHT22;8064;51.142;4.780;2022-11-09T14:08:58;16.20;93.80
15930;DHT22;8064;51.142;4.780;2022-11-09T14:11:43;16.20;93.80
15930;DHT22;8064;51.142;4.780;2022-11-09T14:22:22;15.90;93.80
15930;DHT22;8064;51.142;4.780;2022-11-09T14:24:48;15.90;93.90
15930;DHT22;8064;51.142;4.780;2022-11-09T14:27:19;15.90;94.00
15930;DHT22;8064;51.142;4.780;2022-11-09T14:29:48;15.90;94.10
15930;DHT22;8064;51.142;4.780;2022-11-09T14:32:24;15.90;94.10
15930;DHT22;8064;51.142;4.780;2022-11-09T14:34:51;15.80;94.10
15930;DHT22;8064;51.142;4.780;2022-11-09T14:37:17;15.70;94.20
15930;DHT22;8064;51.142;4.780;2022-11-09T14:39:49;15.70;94.20
15930;DHT22;8064;51.142;4.780;2022-11-09T14:42:19;15.70;94.10
15930;DHT22;8064;51.142;4.780;2022-11-09T14:44:46;15.60;94.10
15930;DHT22;8064;51.142;4.780;2022-11-09T14:47:18;15.60;94.10
15930;DHT22;8064;51.142;4.780;2022-11-09T14:49:46;15.50;94.00
15930;DHT22;8064;51.142;4.780;2022-11-09T14:52:16;15.50;94.00
15930;DHT22;8064;51.142;4.780;2022-11-09T14:54:43;15.40;93.90
15930;DHT22;8064;51.142;4.780;2022-11-09T14:57:14;15.40;93.80
15930;DHT22;8064;51.142;4.780;2022-11-09T14:59:42;15.40;93.90
15930;DHT22;8064;51.142;4.780;2022-11-09T15:02:20;15.30;93.80
15930;DHT22;8064;51.142;4.780;2022-11-09T15:04:51;15.30;93.80
15930;DHT22;8064;51.142;4.780;2022-11-09T15:07:19;15.30;93.80
15930;DHT22;8064;51.142;4.780;2022-11-09T15:09:49;15.30;93.80
15930;DHT22;8064;51.142;4.780;2022-11-09T15:12:17;15.30;93.90
15930;DHT22;8064;51.142;4.780;2022-11-09T15:14:53;15.20;93.90
15930;DHT22;8064;51.142;4.780;2022-11-09T15:17:32;15.20;94.00
15930;DHT22;8064;51.142;4.780;2022-11-09T15:20:21;15.10;94.10
15930;DHT22;8064;51.142;4.780;2022-11-09T15:30:46;14.90;94.40
15930;DHT22;8064;51.142;4.780;2022-11-09T15:38:36;14.70;94.70
15930;DHT22;8064;51.142;4.780;2022-11-09T15:41:16;14.70;94.80
15930;DHT22;8064;51.142;4.780;2022-11-09T15:43:43;14.60;94.80
15930;DHT22;8064;51.142;4.780;2022-11-09T15:46:23;14.50;94.90
15930;DHT22;8064;51.142;4.780;2022-11-09T15:48:49;14.50;95.00
15930;DHT22;8064;51.142;4.780;2022-11-09T15:51:16;14.40;95.10
15930;DHT22;8064;51.142;4.780;2022-11-09T15:53:42;14.40;95.20
15930;DHT22;8064;51.142;4.780;2022-11-09T15:56:20;14.30;95.30
15930;DHT22;8064;51.142;4.780;2022-11-09T15:58:46;14.20;95.70
15930;DHT22;8064;51.142;4.780;2022-11-09T16:01:13;14.20;95.40
15930;DHT22;8064;51.142;4.780;2022-11-09T16:03:39;14.10;95.50
15930;DHT22;8064;51.142;4.780;2022-11-09T16:06:07;14.10;95.60
15930;DHT22;8064;51.142;4.780;2022-11-09T16:08:33;14.00;95.70
15930;DHT22;8064;51.142;4.780;2022-11-09T16:11:03;14.00;95.70
15930;DHT22;8064;51.142;4.780;2022-11-09T16:13:29;14.00;95.80
15930;DHT22;8064;51.142;4.780;2022-11-09T16:16:01;13.90;95.80
15930;DHT22;8064;51.142;4.780;2022-11-09T16:18:27;13.90;95.90
15930;DHT22;8064;51.142;4.780;2022-11-09T16:20:53;13.80;95.90
15930;DHT22;8064;51.142;4.780;2022-11-09T16:23:19;13.80;96.00
15930;DHT22;8064;51.142;4.780;2022-11-09T16:25:44;13.80;96.00
15930;DHT22;8064;51.142;4.780;2022-11-09T16:28:10;13.80;96.10
15930;DHT22;8064;51.142;4.780;2022-11-09T16:30:36;13.70;96.10
15930;DHT22;8064;51.142;4.780;2022-11-09T16:33:01;13.70;96.20
15930;DHT22;8064;51.142;4.780;2022-11-09T16:35:27;13.70;96.20
15930;DHT22;8064;51.142;4.780;2022-11-09T16:37:53;13.70;96.30
15930;DHT22;8064;51.142;4.780;2022-11-09T16:40:19;13.70;96.30
15930;DHT22;8064;51.142;4.780;2022-11-09T16:42:46;13.60;96.30
15930;DHT22;8064;51.142;4.780;2022-11-09T16:45:14;13.60;96.40
15930;DHT22;8064;51.142;4.780;2022-11-09T16:47:48;13.60;96.40
15930;DHT22;8064;51.142;4.780;2022-11-09T16:50:15;13.60;96.50
15930;DHT22;8064;51.142;4.780;2022-11-09T16:52:41;13.60;96.50
15930;DHT22;8064;51.142;4.780;2022-11-09T16:55:07;13.50;96.50
15930;DHT22;8064;51.142;4.780;2022-11-09T16:57:34;13.50;96.80
15930;DHT22;8064;51.142;4.780;2022-11-09T17:00:00;13.50;96.70
15930;DHT22;8064;51.142;4.780;2022-11-09T17:02:26;13.50;96.70
15930;DHT22;8064;51.142;4.780;2022-11-09T17:04:52;13.50;96.80
15930;DHT22;8064;51.142;4.780;2022-11-09T17:07:19;13.50;96.80
15930;DHT22;8064;51.142;4.780;2022-11-09T17:09:45;13.50;96.90
15930;DHT22;8064;51.142;4.780;2022-11-09T17:12:11;13.50;97.00
15930;DHT22;8064;51.142;4.780;2022-11-09T17:14:37;13.50;97.10
15930;DHT22;8064;51.142;4.780;2022-11-09T17:17:03;13.50;97.00
15930;DHT22;8064;51.142;4.780;2022-11-09T17:19:33;13.40;97.00
15930;DHT22;8064;51.142;4.780;2022-11-09T17:21:59;13.40;97.40
15930;DHT22;8064;51.142;4.780;2022-11-09T17:24:25;13.40;97.10
15930;DHT22;8064;51.142;4.780;2022-11-09T17:26:51;13.40;97.20
15930;DHT22;8064;51.142;4.780;2022-11-09T17:29:17;13.30;97.30
15930;DHT22;8064;51.142;4.780;2022-11-09T17:31:43;13.30;97.30
15930;DHT22;8064;51.142;4.780;2022-11-09T17:34:09;13.30;97.50
15930;DHT22;8064;51.142;4.780;2022-11-09T17:36:36;13.30;97.50
15930;DHT22;8064;51.142;4.780;2022-11-09T17:39:03;13.30;97.60
15930;DHT22;8064;51.142;4.780;2022-11-09T17:41:29;13.30;97.60
15930;DHT22;8064;51.142;4.780;2022-11-09T17:43:55;13.30;97.70
15930;DHT22;8064;51.142;4.780;2022-11-09T17:46:21;13.30;97.70